createdAt,value
2022-10-12T00:02:19.736Z,14.09
2022-10-12T00:12:19.806Z,14.07
2022-10-12T00:22:20.117Z,14.06
2022-10-12T00:32:20.255Z,14.10
2022-10-12T00:42:20.378Z,14.09
2022-10-12T00:52:20.401Z,14.12
2022-10-12T01:02:20.717Z,14.15
2022-10-12T01:12:20.753Z,14.17
2022-10-12T01:22:21.063Z,14.15
2022-10-12T01:32:21.081Z,14.10
2022-10-12T01:42:21.420Z,14.09
2022-10-12T01:52:21.462Z,14.03
2022-10-12T02:02:21.772Z,14.02
2022-10-12T02:12:21.789Z,13.99
2022-10-12T02:22:22.240Z,13.99
2022-10-12T02:32:22.277Z,13.85
2022-10-12T02:42:22.561Z,13.84
2022-10-12T02:52:22.601Z,13.91
2022-10-12T03:02:23.041Z,13.95
2022-10-12T03:12:23.123Z,13.92
2022-10-12T03:22:23.267Z,13.92
2022-10-12T03:32:23.277Z,13.96
2022-10-12T03:42:23.613Z,13.87
2022-10-12T03:52:23.653Z,13.84
2022-10-12T04:02:23.974Z,13.84
2022-10-12T04:12:24.003Z,13.85
2022-10-12T04:22:24.331Z,13.73
2022-10-12T04:32:24.388Z,13.77
2022-10-12T04:42:24.667Z,13.75
2022-10-12T04:52:24.770Z,13.73
2022-10-12T05:02:25.009Z,13.71
2022-10-12T05:12:25.048Z,13.71
2022-10-12T05:22:25.365Z,13.71
2022-10-12T05:32:25.377Z,13.78
2022-10-12T05:42:25.727Z,13.78
2022-10-12T05:52:25.745Z,13.78
2022-10-12T06:02:26.066Z,13.87
2022-10-12T06:12:26.091Z,13.84
2022-10-12T06:22:26.420Z,13.91
2022-10-12T06:32:26.441Z,14.02
2022-10-12T06:42:26.778Z,14.06
2022-10-12T06:52:26.799Z,14.12
2022-10-12T07:02:27.110Z,14.17
2022-10-12T07:12:27.144Z,14.20
2022-10-12T07:22:27.457Z,14.21
2022-10-12T07:32:27.480Z,14.29
2022-10-12T07:42:27.807Z,14.43
2022-10-12T07:52:27.966Z,14.54
2022-10-12T08:02:28.064Z,14.70
2022-10-12T08:12:28.104Z,14.83
2022-10-12T08:22:28.336Z,14.96
2022-10-12T08:32:28.555Z,14.92
2022-10-12T08:42:28.862Z,15.28
2022-10-12T08:52:28.899Z,15.44
2022-10-12T09:02:29.235Z,15.60
2022-10-12T09:12:29.249Z,15.67
2022-10-12T09:22:29.565Z,15.60
2022-10-12T09:32:29.593Z,15.50
2022-10-12T09:42:29.915Z,15.35
2022-10-12T09:52:29.930Z,15.72
2022-10-12T10:02:30.259Z,15.76
2022-10-12T10:12:30.270Z,15.96
2022-10-12T10:22:30.612Z,16.61
2022-10-12T10:32:30.652Z,16.93
2022-10-12T10:42:30.969Z,17.14
2022-10-12T10:52:31.010Z,17.40
2022-10-12T11:02:31.327Z,18.84
2022-10-12T11:12:31.637Z,18.82
2022-10-12T11:22:31.661Z,19.50
2022-10-12T11:32:31.681Z,19.41
2022-10-12T11:42:32.009Z,20.01
2022-10-12T11:52:32.037Z,20.82
2022-10-12T12:02:32.355Z,20.28
2022-10-12T12:12:32.424Z,20.35
2022-10-12T12:22:32.505Z,20.31
2022-10-12T12:32:32.523Z,20.16
2022-10-12T12:42:32.856Z,20.26
2022-10-12T12:52:32.877Z,20.06
2022-10-12T13:02:33.208Z,20.51
2022-10-12T13:12:33.268Z,20.29
2022-10-12T13:22:33.799Z,20.33
2022-10-12T13:32:34.083Z,20.58
2022-10-12T13:42:33.797Z,20.42
2022-10-12T13:52:34.027Z,20.16
2022-10-12T14:02:34.351Z,19.66
2022-10-12T14:12:34.419Z,19.69
2022-10-12T14:22:34.501Z,19.55
2022-10-12T14:32:34.539Z,19.56
2022-10-12T14:42:34.850Z,19.62
2022-10-12T14:52:34.892Z,18.84
2022-10-12T15:02:35.144Z,18.11
2022-10-12T15:12:35.474Z,18.51
2022-10-12T15:22:35.502Z,17.92
2022-10-12T15:32:35.721Z,17.43
2022-10-12T15:42:35.954Z,17.38
2022-10-12T15:52:36.171Z,17.12
2022-10-12T16:02:36.461Z,16.70
2022-10-12T16:12:36.530Z,16.48
2022-10-12T16:22:36.751Z,16.39
2022-10-12T16:32:36.981Z,16.20
2022-10-12T16:42:37.258Z,15.96
2022-10-12T16:52:37.281Z,16.04
2022-10-12T17:02:37.605Z,16.08
2022-10-12T17:12:37.627Z,16.08
2022-10-12T17:22:37.967Z,16.08
2022-10-12T17:32:38.008Z,16.09
2022-10-12T17:42:38.533Z,16.11
2022-10-12T17:52:38.490Z,16.04
2022-10-12T18:02:39.022Z,16.20
2022-10-12T18:12:38.780Z,16.21
2022-10-12T18:22:39.132Z,15.94
2022-10-12T18:32:39.418Z,15.96
2022-10-12T18:42:39.717Z,15.89
2022-10-12T18:52:39.627Z,15.82
2022-10-12T19:02:39.857Z,15.68
2022-10-12T19:12:44.775Z,15.78
2022-10-12T19:22:41.099Z,15.74
2022-10-12T19:32:40.377Z,15.67
2022-10-12T19:42:40.253Z,15.71
2022-10-12T19:52:40.376Z,15.56
2022-10-12T20:02:40.602Z,15.59
2022-10-12T20:12:40.855Z,15.54
2022-10-12T20:22:40.790Z,15.57
2022-10-12T20:32:41.076Z,15.56
2022-10-12T20:42:41.113Z,15.28
2022-10-12T20:52:41.421Z,15.29
2022-10-12T21:02:41.446Z,15.19
2022-10-12T21:12:41.776Z,15.13
2022-10-12T21:22:41.792Z,15.02
2022-10-12T21:32:42.112Z,15.14
2022-10-12T21:42:42.140Z,14.99
2022-10-12T21:52:42.480Z,15.13
2022-10-12T22:02:42.522Z,15.19
2022-10-12T22:12:42.828Z,15.14
2022-10-12T22:22:42.850Z,15.07
2022-10-12T22:32:43.176Z,15.02
2022-10-12T22:42:43.197Z,14.75
2022-10-12T22:52:43.557Z,14.40
2022-10-12T23:02:43.584Z,14.02
2022-10-12T23:12:43.876Z,13.63
2022-10-12T23:22:43.905Z,13.29
2022-10-12T23:32:44.227Z,13.33
2022-10-12T23:42:44.249Z,13.20
2022-10-12T23:52:44.590Z,13.04
